Time;durP1;ratioP1;P1;durP2;ratioP2;P2;SDS_P1;SDS_P2;PMS_P1;PMS_P2;Temp;Humidity;BMP_temperature;BMP_pressure;BME280_temperature;BME280_humidity;BME280_pressure;Samples;Min_cycle;Max_cycle;Signal;HPM_P1;HPM_P2
2023/01/25 00:02:18;;;;;;;;;54.50;44.00;;;;;4.95;65.02;103079.06;5009380;27;45746;-67
2023/01/25 00:04:44;;;;;;;;;56.75;43.50;;;;;4.78;65.56;103065.03;5014126;27;46024;-67
2023/01/25 00:07:09;;;;;;;;;59.25;43.00;;;;;4.79;65.36;103072.03;5008527;27;45769;-69
2023/01/25 00:09:35;;;;;;;;;55.25;42.50;;;;;4.75;66.10;103066.53;5010802;27;45865;-67
2023/01/25 00:12:01;;;;;;;;;54.50;40.25;;;;;4.75;66.16;103071.75;5010089;27;45640;-72
2023/01/25 00:14:27;;;;;;;;;54.50;41.75;;;;;4.80;66.12;103070.31;5014904;27;45588;-67
2023/01/25 00:16:53;;;;;;;;;57.00;42.25;;;;;4.79;66.05;103059.06;5013484;27;45619;-70
2023/01/25 00:19:19;;;;;;;;;55.00;44.00;;;;;4.87;65.46;103068.19;5009578;27;45504;-66
2023/01/25 00:21:44;;;;;;;;;61.50;46.00;;;;;4.84;65.94;103067.09;5010487;27;45764;-68
2023/01/25 00:24:13;;;;;;;;;62.50;44.25;;;;;4.75;65.94;103053.56;5009661;27;46168;-70
2023/01/25 00:26:42;;;;;;;;;54.75;41.50;;;;;4.79;66.36;103066.84;5009467;27;45478;-70
2023/01/25 00:29:11;;;;;;;;;57.00;42.50;;;;;4.82;66.26;103058.34;5010082;27;45808;-70
2023/01/25 00:32:02;;;;;;;;;49.00;36.00;;;;;4.88;66.50;103061.31;5009801;27;45746;-72
2023/01/25 00:34:28;;;;;;;;;46.25;34.25;;;;;4.96;65.47;103065.28;5008485;27;46717;-70
2023/01/25 00:37:12;;;;;;;;;47.25;37.25;;;;;5.01;65.54;103061.28;5010005;27;45520;-68
2023/01/25 00:39:38;;;;;;;;;58.50;40.00;;;;;4.98;65.46;103052.38;5022168;27;45539;-70
2023/01/25 00:42:04;;;;;;;;;54.75;43.25;;;;;4.85;65.51;103045.53;5009548;27;45629;-72
2023/01/25 00:44:30;;;;;;;;;59.25;44.25;;;;;4.94;65.91;103064.28;5065283;27;46700;-76
2023/01/25 00:46:56;;;;;;;;;53.25;41.25;;;;;4.83;65.80;103050.63;5010413;27;45468;-70
2023/01/25 00:49:25;;;;;;;;;60.00;46.00;;;;;4.88;66.05;103054.41;5026026;27;45726;-68
2023/01/25 00:51:52;;;;;;;;;58.75;43.25;;;;;4.94;65.67;103048.72;5010285;27;45718;-71
2023/01/25 00:54:18;;;;;;;;;60.75;43.00;;;;;4.97;65.65;103056.69;5010748;27;45585;-66
2023/01/25 00:56:44;;;;;;;;;53.50;42.75;;;;;5.01;66.14;103058.69;5013887;27;45337;-69
2023/01/25 00:59:10;;;;;;;;;50.00;39.00;;;;;5.05;65.56;103052.88;5012403;27;45525;-69
2023/01/25 01:01:36;;;;;;;;;51.75;40.25;;;;;5.08;66.14;103050.47;5010128;27;45785;-69
2023/01/25 01:04:02;;;;;;;;;51.00;39.75;;;;;5.10;66.05;103046.25;5010284;27;46660;-68
2023/01/25 01:06:27;;;;;;;;;46.75;36.75;;;;;5.10;65.78;103037.53;5012920;27;45489;-71
2023/01/25 01:08:53;;;;;;;;;52.25;41.00;;;;;5.09;65.10;103034.06;5014276;27;45510;-69
2023/01/25 01:11:20;;;;;;;;;54.00;41.75;;;;;5.16;65.61;103043.13;5008515;27;46489;-69
2023/01/25 01:13:46;;;;;;;;;51.75;40.50;;;;;5.18;65.04;103038.94;5008932;27;45576;-68
2023/01/25 01:16:13;;;;;;;;;54.75;37.25;;;;;5.22;64.93;103040.00;5008207;27;45444;-69
2023/01/25 01:18:44;;;;;;;;;51.50;40.00;;;;;5.22;65.08;103040.91;5009269;27;45387;-68
2023/01/25 01:21:11;;;;;;;;;28.75;23.00;;;;;5.28;65.03;103042.97;5009892;27;45416;-70
2023/01/25 01:23:37;;;;;;;;;55.75;44.00;;;;;5.31;64.76;103044.06;5008898;27;45457;-69
2023/01/25 01:26:05;;;;;;;;;52.50;39.25;;;;;5.26;65.06;103037.69;5009701;27;45464;-68
2023/01/25 01:28:32;;;;;;;;;61.00;44.25;;;;;5.12;65.13;103041.13;5052719;27;45553;-69
2023/01/25 01:31:03;;;;;;;;;48.75;39.75;;;;;5.09;65.46;103034.06;5034323;27;45432;-68
2023/01/25 01:33:29;;;;;;;;;55.75;41.75;;;;;5.17;64.79;103042.31;5011242;27;45620;-69
2023/01/25 01:35:55;;;;;;;;;53.75;39.25;;;;;5.17;65.31;103031.91;5008480;27;45515;-74
2023/01/25 01:38:21;;;;;;;;;51.50;41.00;;;;;5.03;64.53;103009.41;5012985;27;45295;-71
2023/01/25 01:40:47;;;;;;;;;51.50;41.25;;;;;5.19;65.39;103035.50;5013049;27;45510;-68
2023/01/25 01:43:21;;;;;;;;;56.75;43.25;;;;;5.23;65.21;103052.19;5011769;27;45454;-69
2023/01/25 01:45:47;;;;;;;;;53.50;42.25;;;;;5.21;65.22;103049.50;5007417;27;45386;-69
2023/01/25 01:48:41;;;;;;;;;59.50;44.25;;;;;5.21;65.27;103051.19;5012343;27;45764;-70
2023/01/25 01:51:39;;;;;;;;;55.00;40.00;;;;;5.25;64.91;103051.47;5014743;27;45372;-69
2023/01/25 01:54:27;;;;;;;;;55.00;41.75;;;;;5.28;64.77;103058.56;5014690;27;47509;-69
2023/01/25 01:57:17;;;;;;;;;56.75;43.25;;;;;5.26;64.40;103061.06;5011914;27;45466;-70
2023/01/25 01:59:47;;;;;;;;;56.50;39.50;;;;;5.20;65.18;103058.09;5014968;27;45749;-73
2023/01/25 02:02:13;;;;;;;;;55.75;41.50;;;;;5.15;65.04;103059.53;5014354;27;45432;-70
2023/01/25 02:04:41;;;;;;;;;58.75;42.50;;;;;5.14;65.49;103055.13;5014304;27;46561;-74
2023/01/25 02:07:19;;;;;;;;;63.75;45.00;;;;;5.07;65.12;103058.16;5016630;27;45477;-75
2023/01/25 02:09:47;;;;;;;;;62.75;45.25;;;;;4.95;65.59;103053.09;5016375;27;45396;-72
2023/01/25 02:12:13;;;;;;;;;59.50;46.00;;;;;4.97;65.95;103064.47;5013179;27;45493;-76
2023/01/25 02:14:50;;;;;;;;;54.25;40.50;;;;;4.89;65.79;103037.16;5013143;27;45526;-75
2023/01/25 02:17:21;;;;;;;;;54.25;42.50;;;;;4.94;65.66;103048.72;5010290;27;45386;-69
2023/01/25 02:19:58;;;;;;;;;58.50;43.00;;;;;5.07;65.75;103064.22;5009499;27;45382;-69
2023/01/25 02:22:32;;;;;;;;;55.00;42.00;;;;;5.10;65.54;103072.25;5015923;27;45368;-69
2023/01/25 02:25:12;;;;;;;;;57.50;43.00;;;;;5.06;65.44;103057.25;5010448;27;47092;-69
2023/01/25 02:27:45;;;;;;;;;63.25;43.00;;;;;5.03;65.52;103058.75;5012735;27;45539;-70
2023/01/25 02:30:11;;;;;;;;;63.50;45.75;;;;;5.00;65.67;103051.66;5017027;27;45220;-71
2023/01/25 02:32:37;;;;;;;;;59.25;44.50;;;;;5.04;65.93;103063.16;5015481;27;45970;-69
2023/01/25 02:35:04;;;;;;;;;54.75;41.00;;;;;5.07;65.91;103055.56;5013386;27;45538;-68
2023/01/25 02:37:29;;;;;;;;;51.25;40.25;;;;;5.17;65.57;103070.00;5016094;27;45556;-69
2023/01/25 02:39:55;;;;;;;;;54.25;42.75;;;;;5.04;65.25;103053.66;5015355;27;45445;-69
2023/01/25 02:42:20;;;;;;;;;57.75;45.50;;;;;5.02;65.59;103059.56;5016282;27;45479;-68
2023/01/25 02:44:47;;;;;;;;;58.50;45.00;;;;;4.98;65.50;103071.44;5016187;27;45961;-68
2023/01/25 02:47:13;;;;;;;;;62.00;44.00;;;;;4.95;65.72;103073.88;5016045;27;45367;-70
2023/01/25 02:49:38;;;;;;;;;61.00;44.25;;;;;4.82;66.18;103060.94;5016284;27;45349;-71
2023/01/25 02:52:04;;;;;;;;;59.75;41.50;;;;;4.83;66.43;103068.81;5014812;27;45431;-68
2023/01/25 02:54:30;;;;;;;;;54.25;41.25;;;;;4.83;65.81;103058.41;5010334;27;46690;-69
2023/01/25 02:56:56;;;;;;;;;57.50;42.00;;;;;4.87;65.97;103054.31;5012699;27;45412;-70
2023/01/25 02:59:22;;;;;;;;;56.50;40.25;;;;;4.96;66.40;103062.69;5011101;27;46018;-68
2023/01/25 03:01:48;;;;;;;;;53.00;40.75;;;;;4.96;66.05;103057.50;5015065;27;45682;-69
2023/01/25 03:04:14;;;;;;;;;51.25;41.00;;;;;4.99;66.07;103055.09;5004554;27;46201;-70
2023/01/25 03:06:40;;;;;;;;;55.50;43.75;;;;;4.91;65.93;103040.72;5011774;27;45847;-74
2023/01/25 03:09:08;;;;;;;;;61.75;44.00;;;;;4.88;66.22;103035.34;5013459;27;45444;-69
2023/01/25 03:11:34;;;;;;;;;57.50;43.50;;;;;4.82;66.49;103040.16;5012046;27;45560;-70
2023/01/25 03:13:59;;;;;;;;;53.00;42.75;;;;;4.73;66.82;103030.09;5009465;27;46071;-71
2023/01/25 03:16:25;;;;;;;;;60.50;42.00;;;;;4.73;66.83;103042.19;5009870;27;45480;-72
2023/01/25 03:18:54;;;;;;;;;58.75;44.75;;;;;4.68;67.31;103039.28;5026178;27;45598;-69
2023/01/25 03:21:21;;;;;;;;;56.50;42.25;;;;;4.81;67.23;103049.63;5011828;27;45819;-68
2023/01/25 03:23:53;;;;;;;;;60.00;42.50;;;;;4.82;66.54;103054.03;5013169;27;45633;-68
2023/01/25 03:26:21;;;;;;;;;58.50;44.25;;;;;4.75;67.26;103038.88;5015208;27;45394;-69
2023/01/25 03:28:47;;;;;;;;;53.25;38.00;;;;;4.76;67.25;103040.66;5015921;27;45547;-69
2023/01/25 03:31:14;;;;;;;;;57.00;42.00;;;;;4.86;67.08;103050.84;5011389;27;45395;-71
2023/01/25 03:33:40;;;;;;;;;54.00;42.50;;;;;4.85;67.01;103041.25;5005709;27;45409;-69
2023/01/25 03:36:07;;;;;;;;;54.25;41.50;;;;;4.91;67.01;103045.00;5015458;27;45713;-68
2023/01/25 03:38:33;;;;;;;;;52.25;41.00;;;;;4.98;66.68;103055.88;5014150;27;45777;-69
2023/01/25 03:40:59;;;;;;;;;51.75;40.25;;;;;5.02;66.88;103052.66;5012407;27;45586;-69
2023/01/25 03:43:25;;;;;;;;;54.25;41.00;;;;;5.02;66.85;103043.97;5011179;27;45789;-69
2023/01/25 03:45:56;;;;;;;;;50.50;38.75;;;;;5.07;67.07;103047.75;5014885;27;45490;-70
2023/01/25 03:48:23;;;;;;;;;59.00;42.50;;;;;4.94;67.08;103033.13;5014355;27;45339;-68
2023/01/25 03:50:54;;;;;;;;;59.25;45.50;;;;;4.83;67.29;103031.56;5014178;27;45581;-68
2023/01/25 03:53:29;;;;;;;;;57.25;42.00;;;;;4.85;67.74;103037.75;5010607;27;45609;-68
2023/01/25 03:55:57;;;;;;;;;57.00;42.00;;;;;4.81;68.18;103041.84;5013744;27;45355;-70
2023/01/25 03:58:23;;;;;;;;;54.00;41.50;;;;;4.83;68.06;103047.13;5014424;27;45468;-71
2023/01/25 04:00:49;;;;;;;;;58.75;43.25;;;;;4.80;67.98;103033.97;5011815;27;45506;-69
2023/01/25 04:03:16;;;;;;;;;59.25;43.75;;;;;4.70;68.43;103035.09;5012420;27;45388;-68
2023/01/25 04:05:42;;;;;;;;;54.50;41.00;;;;;4.60;68.87;103020.66;5002209;27;45392;-68
2023/01/25 04:08:07;;;;;;;;;60.25;45.00;;;;;4.56;68.50;103023.84;5013996;27;45320;-69
2023/01/25 04:10:33;;;;;;;;;57.00;42.00;;;;;4.71;68.53;103041.19;5029821;27;45341;-69
2023/01/25 04:12:58;;;;;;;;;68.25;48.00;;;;;4.67;68.68;103037.47;5008966;27;46753;-71
2023/01/25 04:15:24;;;;;;;;;59.75;44.75;;;;;4.60;68.78;103037.91;5012076;27;45390;-70
2023/01/25 04:17:49;;;;;;;;;61.50;42.75;;;;;4.62;69.06;103042.38;5011165;27;45492;-68
2023/01/25 04:20:15;;;;;;;;;54.50;41.50;;;;;4.73;68.58;103045.66;5009580;27;45661;-71
2023/01/25 04:22:41;;;;;;;;;51.50;39.25;;;;;4.79;68.71;103045.16;5013741;27;47017;-70
2023/01/25 04:25:06;;;;;;;;;58.25;41.75;;;;;4.76;68.37;103034.56;5008576;27;45557;-71
2023/01/25 04:27:32;;;;;;;;;55.75;40.75;;;;;4.79;68.56;103038.28;5025047;27;45426;-68
2023/01/25 04:29:58;;;;;;;;;56.50;39.50;;;;;4.83;68.47;103039.34;5009703;28;45537;-71
2023/01/25 04:32:23;;;;;;;;;50.75;41.00;;;;;4.78;68.34;103020.88;5009831;27;46689;-72
2023/01/25 04:34:49;;;;;;;;;57.25;40.75;;;;;4.83;68.36;103032.44;5010226;28;45402;-69
2023/01/25 04:37:14;;;;;;;;;55.50;43.00;;;;;4.84;68.65;103035.94;5007498;27;45557;-70
2023/01/25 04:39:40;;;;;;;;;55.25;42.50;;;;;4.75;69.10;103025.91;5012911;27;45481;-71
2023/01/25 04:42:06;;;;;;;;;53.75;43.00;;;;;4.76;68.98;103042.38;5010272;27;45353;-69
2023/01/25 04:44:31;;;;;;;;;56.50;41.25;;;;;4.63;68.88;103033.81;5009687;27;45788;-72
2023/01/25 04:46:56;;;;;;;;;53.50;42.50;;;;;4.62;68.94;103033.72;5014625;27;46102;-70
2023/01/25 04:49:22;;;;;;;;;50.25;38.75;;;;;4.68;68.77;103028.91;5009770;27;45391;-68
2023/01/25 04:51:47;;;;;;;;;51.50;40.00;;;;;4.73;68.57;103031.81;5005443;28;47005;-68
2023/01/25 04:54:13;;;;;;;;;42.50;34.00;;;;;4.81;68.40;103040.94;5004500;27;45449;-73
2023/01/25 04:56:38;;;;;;;;;51.75;40.00;;;;;4.84;69.00;103035.94;5010141;27;45531;-69
2023/01/25 04:59:04;;;;;;;;;57.75;43.00;;;;;4.75;69.13;103019.81;5011258;27;45495;-68
2023/01/25 05:01:32;;;;;;;;;55.25;39.75;;;;;4.77;69.43;103031.16;5026573;27;46618;-70
2023/01/25 05:03:58;;;;;;;;;56.25;41.25;;;;;4.63;69.88;103018.25;5001396;27;45354;-69
2023/01/25 05:06:24;;;;;;;;;52.50;39.50;;;;;4.61;69.41;103030.22;5006787;27;45548;-69
2023/01/25 05:08:50;;;;;;;;;57.00;41.25;;;;;4.45;69.39;103015.38;5013237;27;45495;-69
2023/01/25 05:11:15;;;;;;;;;52.50;40.00;;;;;4.46;69.51;103031.81;5012129;27;46040;-69
2023/01/25 05:13:43;;;;;;;;;51.75;40.25;;;;;4.46;69.38;103027.56;5014631;27;45360;-69
2023/01/25 05:16:12;;;;;;;;;48.75;36.00;;;;;4.52;69.70;103028.75;5014058;27;45496;-73
2023/01/25 05:18:37;;;;;;;;;52.50;40.50;;;;;4.59;69.21;103025.75;5012820;27;45344;-69
2023/01/25 05:21:03;;;;;;;;;49.25;37.75;;;;;4.64;69.01;103032.09;5015633;27;45471;-70
2023/01/25 05:23:28;;;;;;;;;48.75;37.00;;;;;4.45;69.34;103007.59;5014668;27;45299;-71
2023/01/25 05:28:38;;;;;;;;;47.25;34.75;;;;;4.50;70.62;103017.38;5013176;27;45302;-74
2023/01/25 05:31:04;;;;;;;;;44.50;35.00;;;;;4.64;69.80;103022.63;5012678;27;45682;-71
2023/01/25 05:33:30;;;;;;;;;45.00;34.25;;;;;4.48;69.69;103001.69;5011049;27;45475;-75
2023/01/25 05:35:57;;;;;;;;;48.50;37.00;;;;;4.46;69.41;103006.81;5027327;27;45723;-71
2023/01/25 05:38:23;;;;;;;;;52.50;39.50;;;;;4.40;69.58;102998.63;5014162;27;45890;-70
2023/01/25 05:40:49;;;;;;;;;48.75;36.25;;;;;4.40;69.47;103001.22;5015313;27;46154;-75
2023/01/25 05:43:14;;;;;;;;;44.00;32.75;;;;;4.51;69.58;103024.34;5014005;27;45429;-74
2023/01/25 05:45:40;;;;;;;;;39.00;30.25;;;;;4.54;69.40;103017.66;5025706;27;45327;-72
2023/01/25 05:48:06;;;;;;;;;46.50;34.00;;;;;4.60;69.26;103014.53;5013213;27;45393;-77
2023/01/25 05:50:31;;;;;;;;;39.50;32.75;;;;;4.65;68.74;103015.72;5012525;27;45854;-71
2023/01/25 05:52:57;;;;;;;;;37.75;31.25;;;;;4.61;68.61;102993.88;5013155;27;45376;-69
2023/01/25 05:55:22;;;;;;;;;42.50;29.50;;;;;4.71;69.17;103018.72;5065559;27;45488;-69
2023/01/25 05:57:49;;;;;;;;;38.75;32.25;;;;;4.72;68.97;103012.69;5015639;28;45318;-69
2023/01/25 06:00:15;;;;;;;;;32.25;28.50;;;;;4.70;68.44;103013.41;5009534;27;45549;-69
2023/01/25 06:02:41;;;;;;;;;37.00;28.25;;;;;4.65;68.39;103014.03;5002767;27;45460;-71
2023/01/25 06:05:07;;;;;;;;;34.50;27.75;;;;;4.57;67.96;102999.66;5011044;27;45555;-70
2023/01/25 06:07:37;;;;;;;;;33.00;28.00;;;;;4.71;67.62;103013.53;5010558;27;45429;-68
2023/01/25 06:10:03;;;;;;;;;32.75;22.50;;;;;4.60;68.66;103006.75;5011289;27;48135;-68
2023/01/25 06:12:29;;;;;;;;;30.50;28.50;;;;;4.68;68.44;103013.34;5014427;27;45512;-69
2023/01/25 06:14:55;;;;;;;;;28.75;26.25;;;;;4.64;67.83;103000.97;5016533;27;45381;-71
2023/01/25 06:17:21;;;;;;;;;28.00;22.75;;;;;4.73;68.01;103009.31;5014844;27;45381;-69
2023/01/25 06:19:46;;;;;;;;;28.50;21.50;;;;;4.61;68.04;102988.69;5014371;27;46980;-69
2023/01/25 06:22:12;;;;;;;;;25.50;20.50;;;;;4.79;67.47;103008.78;5014375;27;45589;-69
2023/01/25 06:24:37;;;;;;;;;26.75;19.25;;;;;4.84;66.96;103007.38;5012198;27;45555;-68
2023/01/25 06:27:03;;;;;;;;;24.75;19.00;;;;;4.84;67.12;103008.31;5009968;27;45496;-68
2023/01/25 06:29:28;;;;;;;;;29.00;20.00;;;;;4.79;67.18;102988.03;5016356;27;45518;-69
2023/01/25 06:31:54;;;;;;;;;26.75;21.50;;;;;4.86;66.91;103001.50;5011554;27;45390;-72
2023/01/25 06:34:20;;;;;;;;;26.00;20.75;;;;;4.83;66.87;102993.50;5012021;27;45810;-70
2023/01/25 06:36:47;;;;;;;;;22.25;20.25;;;;;4.93;66.12;103004.47;5020523;27;45460;-67
2023/01/25 06:39:12;;;;;;;;;29.50;21.50;;;;;4.94;66.32;103008.88;5015707;27;45343;-69
2023/01/25 06:41:41;;;;;;;;;31.75;27.00;;;;;4.78;66.22;102992.31;5014051;27;45456;-68
2023/01/25 06:44:08;;;;;;;;;32.75;22.00;;;;;4.78;66.61;103012.22;5013352;27;45473;-75
2023/01/25 06:46:33;;;;;;;;;32.75;24.75;;;;;4.65;66.54;103007.94;5012345;27;45514;-71
2023/01/25 06:48:59;;;;;;;;;38.50;30.00;;;;;4.46;66.38;102995.50;5011194;27;45970;-70
2023/01/25 06:51:24;;;;;;;;;34.50;23.00;;;;;4.43;67.44;102992.72;5008387;27;45695;-69
2023/01/25 06:53:50;;;;;;;;;26.25;22.25;;;;;4.46;66.94;102982.53;5009571;27;45425;-68
2023/01/25 06:56:19;;;;;;;;;27.00;24.25;;;;;4.57;66.82;103001.38;5011213;27;45870;-69
2023/01/25 06:58:45;;;;;;;;;28.50;21.25;;;;;4.60;66.64;103004.16;5011601;27;46384;-67
2023/01/25 07:01:16;;;;;;;;;31.25;21.25;;;;;4.63;67.00;103005.25;5012605;27;45420;-69
2023/01/25 07:03:42;;;;;;;;;36.50;30.00;;;;;4.37;66.27;102961.22;5013889;27;45487;-68
2023/01/25 07:06:09;;;;;;;;;38.00;27.00;;;;;4.52;66.64;102988.09;5023820;27;45589;-69
2023/01/25 07:08:35;;;;;;;;;37.00;27.75;;;;;4.35;66.67;102979.28;5008403;27;46395;-69
2023/01/25 07:11:04;;;;;;;;;36.25;30.75;;;;;4.42;66.60;102993.53;5013965;27;45764;-68
2023/01/25 07:13:31;;;;;;;;;40.00;28.25;;;;;4.23;67.07;102974.19;4998214;27;45452;-69
2023/01/25 07:16:00;;;;;;;;;33.75;26.50;;;;;4.24;67.45;102983.75;5015080;27;45344;-71
2023/01/25 07:18:27;;;;;;;;;26.25;23.00;;;;;4.34;67.72;102992.13;5009665;27;47226;-71
2023/01/25 07:20:52;;;;;;;;;36.00;29.75;;;;;4.39;66.88;102994.25;5010761;27;45392;-68
2023/01/25 07:23:19;;;;;;;;;32.00;27.50;;;;;4.34;67.53;102997.31;5011259;27;45488;-69
2023/01/25 07:25:47;;;;;;;;;34.75;27.25;;;;;4.25;67.23;102990.75;5013000;27;45482;-71
2023/01/25 07:28:13;;;;;;;;;34.50;25.50;;;;;4.28;67.30;102995.25;5010437;27;45451;-70
2023/01/25 07:30:40;;;;;;;;;38.25;30.75;;;;;4.19;67.49;102997.25;5009525;27;45548;-68
2023/01/25 07:33:06;;;;;;;;;33.50;26.50;;;;;4.03;67.16;102982.38;5010812;27;45465;-67
2023/01/25 07:35:31;;;;;;;;;34.00;29.75;;;;;4.01;67.33;102999.53;5014130;27;45584;-69
2023/01/25 07:37:57;;;;;;;;;36.75;31.75;;;;;3.92;67.69;103001.56;5011542;27;47131;-67
2023/01/25 07:40:24;;;;;;;;;35.00;29.75;;;;;3.79;68.59;103000.72;5006916;28;45531;-71
2023/01/25 07:43:14;;;;;;;;;;;;;;;;;;;;;
2023/01/25 07:45:47;;;;;;;;;34.25;32.00;;;;;3.72;68.64;103002.81;5007460;28;63976;-70
2023/01/25 07:48:13;;;;;;;;;43.75;32.75;;;;;3.58;69.06;102994.13;5034315;27;47917;-71
2023/01/25 07:50:40;;;;;;;;;36.00;30.50;;;;;3.54;69.31;102998.22;5016080;27;45559;-71
2023/01/25 07:53:20;;;;;;;;;40.75;31.25;;;;;3.37;69.96;102967.72;5015730;27;45493;-69
2023/01/25 07:55:46;;;;;;;;;31.25;28.00;;;;;3.49;69.70;102968.53;5011920;27;45436;-69
2023/01/25 07:58:12;;;;;;;;;33.00;26.50;;;;;3.56;69.87;102969.78;5011423;27;45418;-69
2023/01/25 08:00:56;;;;;;;;;30.50;26.50;;;;;3.80;69.62;102997.34;5011593;27;45447;-72
2023/01/25 08:03:23;;;;;;;;;28.75;25.50;;;;;3.71;68.81;102954.38;5014779;27;45476;-68
2023/01/25 08:05:48;;;;;;;;;29.25;23.75;;;;;3.99;68.98;102990.78;5016582;27;45412;-68
2023/01/25 08:08:14;;;;;;;;;31.75;22.75;;;;;3.99;68.59;102977.81;5015410;27;45828;-71
2023/01/25 08:10:40;;;;;;;;;26.50;21.50;;;;;4.08;68.31;102983.59;5009204;27;45374;-71
2023/01/25 08:13:05;;;;;;;;;32.25;25.75;;;;;4.21;67.98;102990.47;5010855;27;45660;-70
2023/01/25 08:15:31;;;;;;;;;29.75;23.00;;;;;4.26;68.05;102994.25;5010880;27;45463;-68
2023/01/25 08:18:00;;;;;;;;;41.00;26.50;;;;;4.27;67.50;102992.53;5013629;27;46540;-70
2023/01/25 08:20:26;;;;;;;;;26.50;24.25;;;;;4.33;67.67;102993.84;5015291;27;45345;-72
2023/01/25 08:22:53;;;;;;;;;28.75;23.50;;;;;4.38;67.58;102988.94;5009354;27;45645;-69
2023/01/25 08:25:20;;;;;;;;;30.00;24.00;;;;;4.44;67.56;102992.81;5010516;27;45477;-70
2023/01/25 08:27:46;;;;;;;;;35.00;27.00;;;;;4.39;67.23;102991.66;5002116;27;45579;-69
2023/01/25 08:30:12;;;;;;;;;25.50;22.25;;;;;4.43;67.26;102993.59;5010027;27;45550;-69
2023/01/25 08:32:38;;;;;;;;;31.50;26.00;;;;;4.45;66.56;102986.81;5013958;27;45483;-71
2023/01/25 08:35:04;;;;;;;;;36.25;26.25;;;;;4.47;67.32;102981.75;5016107;27;45676;-70
2023/01/25 08:37:30;;;;;;;;;29.25;23.25;;;;;4.47;66.19;102987.81;5012683;27;47003;-70
2023/01/25 08:39:56;;;;;;;;;26.25;19.75;;;;;4.45;66.31;102970.34;5010731;27;45262;-72
2023/01/25 08:42:23;;;;;;;;;29.25;20.75;;;;;4.57;66.14;102993.59;5024831;27;45468;-69
2023/01/25 08:44:50;;;;;;;;;28.00;21.25;;;;;4.49;66.28;102967.16;5010427;27;45776;-69
2023/01/25 08:47:15;;;;;;;;;32.25;24.75;;;;;4.56;66.15;102977.13;5009963;27;46822;-70
2023/01/25 08:49:41;;;;;;;;;30.75;25.00;;;;;4.36;66.17;102975.84;5010178;27;45456;-75
2023/01/25 08:52:06;;;;;;;;;25.00;25.00;;;;;4.35;66.69;102968.00;5009446;27;45574;-70
2023/01/25 08:54:32;;;;;;;;;28.50;25.00;;;;;4.43;66.25;102975.44;5011518;27;45721;-68
2023/01/25 08:56:58;;;;;;;;;22.25;22.00;;;;;4.50;65.80;102983.63;5009691;27;46183;-68
2023/01/25 08:59:23;;;;;;;;;30.50;22.00;;;;;4.55;66.62;102977.03;5010685;27;45761;-69
2023/01/25 09:01:49;;;;;;;;;28.50;24.25;;;;;4.50;65.94;102968.06;5010904;27;45588;-68
2023/01/25 09:04:14;;;;;;;;;29.25;24.50;;;;;4.61;66.17;102967.94;5010597;27;45792;-69
2023/01/25 09:06:40;;;;;;;;;27.50;22.75;;;;;4.59;65.72;102964.34;5009919;27;46428;-71
2023/01/25 09:09:07;;;;;;;;;27.25;22.25;;;;;4.61;65.55;102973.13;5013226;27;45514;-69
2023/01/25 09:11:35;;;;;;;;;26.75;23.00;;;;;4.63;65.10;102974.13;5007938;27;46833;-68
2023/01/25 09:14:01;;;;;;;;;27.00;22.25;;;;;4.61;65.82;102975.72;5008211;27;45763;-72
2023/01/25 09:16:27;;;;;;;;;25.00;22.75;;;;;4.62;65.81;102966.22;5007867;27;47836;-72
2023/01/25 09:18:55;;;;;;;;;23.25;19.00;;;;;4.64;65.09;102968.09;5008443;27;45470;-68
2023/01/25 09:21:21;;;;;;;;;27.50;23.00;;;;;4.70;64.84;102975.41;5009496;27;45446;-69
2023/01/25 09:23:49;;;;;;;;;29.25;26.50;;;;;4.64;65.12;102975.00;5013996;27;45383;-68
2023/01/25 09:26:15;;;;;;;;;31.00;24.00;;;;;4.66;65.07;102978.59;5011810;27;46525;-68
2023/01/25 09:28:45;;;;;;;;;28.25;24.75;;;;;4.67;64.70;102977.78;5009000;27;45893;-70
2023/01/25 09:31:10;;;;;;;;;29.00;26.75;;;;;4.61;65.25;102961.84;5012709;27;45406;-70
2023/01/25 09:33:38;;;;;;;;;34.25;29.25;;;;;4.38;65.21;102944.84;5007586;27;45656;-68
2023/01/25 09:36:04;;;;;;;;;35.00;28.50;;;;;4.50;65.87;102966.34;5008803;27;46777;-72
2023/01/25 09:38:30;;;;;;;;;29.50;24.00;;;;;4.48;65.88;102954.97;5011746;27;45627;-70
2023/01/25 09:41:11;;;;;;;;;28.75;24.00;;;;;4.56;65.91;102963.25;5008172;27;45446;-69
2023/01/25 09:43:56;;;;;;;;;40.75;32.50;;;;;4.56;65.23;102964.16;5025131;27;45408;-69
2023/01/25 09:46:37;;;;;;;;;42.75;30.00;;;;;4.43;65.97;102962.47;5011889;27;46843;-68
2023/01/25 09:49:36;;;;;;;;;28.75;25.25;;;;;4.45;66.04;102967.78;5008186;27;45813;-68
2023/01/25 09:52:47;;;;;;;;;29.00;23.75;;;;;4.35;65.70;102948.13;5015605;27;45513;-70
2023/01/25 09:55:21;;;;;;;;;37.00;25.75;;;;;4.41;66.43;102982.25;5013944;27;45407;-70
2023/01/25 09:57:49;;;;;;;;;35.25;27.50;;;;;4.45;66.29;102959.97;5012236;27;46604;-69
2023/01/25 10:00:48;;;;;;;;;36.00;27.00;;;;;4.45;66.00;102970.34;5012733;27;45580;-70
2023/01/25 10:03:38;;;;;;;;;36.00;26.75;;;;;4.44;65.73;102971.19;5023386;27;45289;-69
2023/01/25 10:06:03;;;;;;;;;41.25;28.75;;;;;4.38;65.50;102957.81;5002904;27;45761;-68
2023/01/25 10:08:31;;;;;;;;;33.50;27.75;;;;;4.46;65.88;102974.72;5008273;27;48037;-68
2023/01/25 10:11:11;;;;;;;;;30.50;24.25;;;;;4.48;65.98;102970.53;5010513;27;45973;-71
2023/01/25 10:13:37;;;;;;;;;30.25;25.25;;;;;4.49;65.87;102972.34;5011645;27;45425;-68
2023/01/25 10:16:08;;;;;;;;;33.50;24.75;;;;;4.52;65.82;102967.34;5008806;27;45860;-69
2023/01/25 10:19:05;;;;;;;;;30.50;22.00;;;;;4.42;65.35;102944.22;5009976;27;45452;-69
2023/01/25 10:21:44;;;;;;;;;24.50;21.75;;;;;4.54;65.23;102965.75;5013896;27;45753;-69
2023/01/25 10:24:47;;;;;;;;;31.25;26.25;;;;;4.60;65.48;102979.13;5028249;27;45503;-69
2023/01/25 10:27:33;;;;;;;;;33.25;27.00;;;;;4.54;64.87;102957.97;5011362;27;45676;-71
2023/01/25 10:30:20;;;;;;;;;26.25;23.75;;;;;4.66;65.23;102981.19;5011833;27;45505;-70
2023/01/25 10:32:47;;;;;;;;;33.25;26.00;;;;;4.59;65.17;102968.63;5012139;27;45512;-70
2023/01/25 10:35:27;;;;;;;;;25.75;22.00;;;;;4.64;64.73;102968.09;5011225;27;45822;-69
2023/01/25 10:37:52;;;;;;;;;38.50;28.25;;;;;4.59;64.15;102968.63;5011526;27;45550;-67
2023/01/25 10:40:22;;;;;;;;;32.50;27.75;;;;;4.44;64.16;102956.50;5010347;27;46719;-68
2023/01/25 10:43:01;;;;;;;;;33.75;26.75;;;;;4.46;65.21;102965.28;5011152;27;45515;-69
2023/01/25 10:45:26;;;;;;;;;26.75;24.00;;;;;4.41;65.08;102948.53;5012000;27;45488;-69
2023/01/25 10:48:02;;;;;;;;;31.25;24.00;;;;;4.52;64.67;102969.94;5012192;27;45449;-68
2023/01/25 10:50:45;;;;;;;;;35.50;27.25;;;;;4.56;65.29;102968.44;5011632;27;45770;-69
2023/01/25 10:53:22;;;;;;;;;29.75;26.00;;;;;4.59;64.95;102971.22;5010354;27;45859;-69
2023/01/25 10:56:09;;;;;;;;;29.50;23.75;;;;;4.61;64.86;102956.66;5013882;27;45514;-68
2023/01/25 10:58:36;;;;;;;;;32.75;24.00;;;;;4.52;64.59;102932.72;5016237;27;45373;-69
2023/01/25 11:01:08;;;;;;;;;32.25;25.75;;;;;4.62;64.05;102942.84;5011585;27;45440;-69
2023/01/25 11:03:39;;;;;;;;;42.25;33.50;;;;;4.46;64.37;102951.38;5008776;27;45465;-68
2023/01/25 11:06:07;;;;;;;;;40.50;32.25;;;;;4.37;64.90;102950.84;5004403;27;45586;-69
2023/01/25 11:08:41;;;;;;;;;33.50;30.75;;;;;4.41;64.98;102945.00;5027337;27;45829;-68
2023/01/25 11:11:32;;;;;;;;;40.75;30.25;;;;;4.44;65.27;102938.34;5011454;27;45859;-69
2023/01/25 11:13:57;;;;;;;;;45.50;33.25;;;;;4.39;64.96;102936.22;5016085;27;45506;-68
2023/01/25 11:16:49;;;;;;;;;39.75;30.25;;;;;4.33;65.06;102918.59;5031586;27;45571;-69
2023/01/25 11:19:41;;;;;;;;;39.25;30.75;;;;;4.43;65.12;102931.34;5013383;27;45374;-68
2023/01/25 11:22:18;;;;;;;;;40.00;33.50;;;;;4.40;64.86;102925.06;5013599;27;46409;-69
2023/01/25 11:24:44;;;;;;;;;41.25;33.25;;;;;4.40;65.43;102920.78;5010657;27;45370;-68
2023/01/25 11:27:18;;;;;;;;;42.25;32.75;;;;;4.45;66.98;102918.47;5010387;27;45398;-69
2023/01/25 11:29:47;;;;;;;;;39.75;31.00;;;;;4.47;66.65;102907.38;5027095;27;45618;-69
2023/01/25 11:32:21;;;;;;;;;47.00;35.75;;;;;4.54;65.41;102912.97;5009682;27;46798;-69